Malta, Idaho
Current Conditions -  °F | °C
As of 4:53 PM on Tuesday 25 Nov 2014 (Local Time) from KBYI Reporting Station
Overcast Overcast  
Wind Chill: 51°   Ceiling: 4300
Heat Index: 51°   Visibility: 10mi
Dew Point: 38°   Wind: 16mph
Humidity: 61%   Direction: 260°W
Pressure: 30.2"   Gusts: 24mph
Location:  42.31°N, 113.37°W
Report Text: KBYI 252353Z AUTO 26014G21KT 10SM OVC043 11/03 A3020 RMK AO2 PK WND 27027/2327 SLP223 60000 T01060033 10111 20094 53006
Loading
Personal Weather Stations






























Interactive Weather Map New forecast layout! Learn more

10-Day Weather Forecast

Advertisements
Track Severe Weather on mobile